Terminal Aerodrome Forecast
Issued by NWS Chicago, IL

Home | Current Version | Previous Version | Text Only | Print | Product List | Glossary On
Versions: 1 2 3 4 5 6 7 8 9 10 11 12 13 14 15 16 17 18 19 20 21 22 23 24 25 26 27 28 29 30 31 32 33 34 35
000
FTUS43 KLOT 270838 AAA
TAFRFD
TAF AMD
KRFD 270838Z 2709/2806 23010KT P6SM SCT025 BKN040
     FM271200 26010KT P6SM SCT025
      TEMPO 2712/2716 BKN025
     FM271800 27012KT P6SM SCT040 SCT250
     FM272300 05006KT P6SM FEW040
     FM280100 VRB03KT P6SM SKC=

USA.gov is the U.S. government's official web portal to all federal, state and local government web resources and services.